sensor_id;sensor_type;location;lat;lon;timestamp;temperature;humidity
20831;DHT22;10576;53.556;9.868;2023-06-22T00:01:50;16.90;99.90
20831;DHT22;10576;53.556;9.868;2023-06-22T00:04:15;16.90;99.90
20831;DHT22;10576;53.556;9.868;2023-06-22T00:06:41;16.90;99.90
20831;DHT22;10576;53.556;9.868;2023-06-22T00:09:06;16.90;99.90
20831;DHT22;10576;53.556;9.868;2023-06-22T00:11:35;16.80;99.90
20831;DHT22;10576;53.556;9.868;2023-06-22T00:14:00;16.80;99.90
20831;DHT22;10576;53.556;9.868;2023-06-22T00:16:26;16.80;99.90
20831;DHT22;10576;53.556;9.868;2023-06-22T00:18:51;16.80;99.90
20831;DHT22;10576;53.556;9.868;2023-06-22T00:21:17;16.80;99.90
20831;DHT22;10576;53.556;9.868;2023-06-22T00:23:45;16.70;99.90
20831;DHT22;10576;53.556;9.868;2023-06-22T00:26:11;16.70;99.90
20831;DHT22;10576;53.556;9.868;2023-06-22T00:28:36;16.60;99.90
20831;DHT22;10576;53.556;9.868;2023-06-22T00:31:02;16.60;99.90
20831;DHT22;10576;53.556;9.868;2023-06-22T00:33:27;16.90;99.90
20831;DHT22;10576;53.556;9.868;2023-06-22T00:35:53;16.70;99.90
20831;DHT22;10576;53.556;9.868;2023-06-22T00:38:19;16.70;99.90
20831;DHT22;10576;53.556;9.868;2023-06-22T00:40:45;16.70;99.90
20831;DHT22;10576;53.556;9.868;2023-06-22T00:43:10;16.70;99.90
20831;DHT22;10576;53.556;9.868;2023-06-22T00:45:36;16.30;99.90
20831;DHT22;10576;53.556;9.868;2023-06-22T00:48:01;16.70;99.90
20831;DHT22;10576;53.556;9.868;2023-06-22T00:50:28;18.10;99.90
20831;DHT22;10576;53.556;9.868;2023-06-22T00:52:58;16.70;99.90
20831;DHT22;10576;53.556;9.868;2023-06-22T00:55:24;16.80;99.90
20831;DHT22;10576;53.556;9.868;2023-06-22T00:57:53;16.70;99.90
20831;DHT22;10576;53.556;9.868;2023-06-22T01:00:22;16.70;99.90
20831;DHT22;10576;53.556;9.868;2023-06-22T01:02:50;16.70;99.90
20831;DHT22;10576;53.556;9.868;2023-06-22T01:05:17;16.70;99.90
20831;DHT22;10576;53.556;9.868;2023-06-22T01:12:53;16.70;99.90
20831;DHT22;10576;53.556;9.868;2023-06-22T01:18:04;16.80;99.90
20831;DHT22;10576;53.556;9.868;2023-06-22T01:20:31;16.80;99.90
20831;DHT22;10576;53.556;9.868;2023-06-22T01:25:28;16.70;99.90
20831;DHT22;10576;53.556;9.868;2023-06-22T01:27:58;16.70;99.90
20831;DHT22;10576;53.556;9.868;2023-06-22T01:30:26;16.70;99.90
20831;DHT22;10576;53.556;9.868;2023-06-22T01:32:53;16.60;99.90
20831;DHT22;10576;53.556;9.868;2023-06-22T01:35:19;16.70;99.90
20831;DHT22;10576;53.556;9.868;2023-06-22T01:37:45;16.60;99.90
20831;DHT22;10576;53.556;9.868;2023-06-22T01:40:11;16.60;99.90
20831;DHT22;10576;53.556;9.868;2023-06-22T01:42:37;16.60;99.90
20831;DHT22;10576;53.556;9.868;2023-06-22T01:45:03;16.60;99.90
20831;DHT22;10576;53.556;9.868;2023-06-22T01:47:29;16.50;99.90
20831;DHT22;10576;53.556;9.868;2023-06-22T01:49:55;16.50;99.90
20831;DHT22;10576;53.556;9.868;2023-06-22T01:52:21;16.50;99.90
20831;DHT22;10576;53.556;9.868;2023-06-22T01:54:46;16.50;99.90
20831;DHT22;10576;53.556;9.868;2023-06-22T01:57:12;16.40;99.90
20831;DHT22;10576;53.556;9.868;2023-06-22T02:02:22;16.50;99.90
20831;DHT22;10576;53.556;9.868;2023-06-22T02:05:10;16.50;99.90
20831;DHT22;10576;53.556;9.868;2023-06-22T02:07:39;16.40;99.90
20831;DHT22;10576;53.556;9.868;2023-06-22T02:10:06;16.40;99.90
20831;DHT22;10576;53.556;9.868;2023-06-22T02:12:33;16.40;99.90
20831;DHT22;10576;53.556;9.868;2023-06-22T02:14:59;16.40;99.90
20831;DHT22;10576;53.556;9.868;2023-06-22T02:17:26;16.30;99.90
20831;DHT22;10576;53.556;9.868;2023-06-22T02:19:51;16.30;99.90
20831;DHT22;10576;53.556;9.868;2023-06-22T02:22:17;16.30;99.90
20831;DHT22;10576;53.556;9.868;2023-06-22T02:24:43;16.30;99.90
20831;DHT22;10576;53.556;9.868;2023-06-22T02:27:09;16.20;99.90
20831;DHT22;10576;53.556;9.868;2023-06-22T02:29:36;16.20;99.90
20831;DHT22;10576;53.556;9.868;2023-06-22T02:32:01;16.20;99.90
20831;DHT22;10576;53.556;9.868;2023-06-22T02:34:27;16.20;99.90
20831;DHT22;10576;53.556;9.868;2023-06-22T02:36:53;16.20;99.90
20831;DHT22;10576;53.556;9.868;2023-06-22T02:39:22;16.10;99.90
20831;DHT22;10576;53.556;9.868;2023-06-22T02:41:48;16.10;99.90
20831;DHT22;10576;53.556;9.868;2023-06-22T02:44:13;16.10;99.90
20831;DHT22;10576;53.556;9.868;2023-06-22T02:46:39;16.10;99.90
20831;DHT22;10576;53.556;9.868;2023-06-22T02:49:04;16.10;99.90
20831;DHT22;10576;53.556;9.868;2023-06-22T02:53:57;16.00;99.90
20831;DHT22;10576;53.556;9.868;2023-06-22T02:56:22;16.00;99.90
20831;DHT22;10576;53.556;9.868;2023-06-22T02:58:50;16.00;99.90
20831;DHT22;10576;53.556;9.868;2023-06-22T03:01:16;16.00;99.90
20831;DHT22;10576;53.556;9.868;2023-06-22T03:03:41;15.90;99.90
20831;DHT22;10576;53.556;9.868;2023-06-22T03:06:07;15.90;99.90
20831;DHT22;10576;53.556;9.868;2023-06-22T03:08:33;16.00;99.90
20831;DHT22;10576;53.556;9.868;2023-06-22T03:10:58;15.90;99.90
20831;DHT22;10576;53.556;9.868;2023-06-22T03:13:24;15.90;99.90
20831;DHT22;10576;53.556;9.868;2023-06-22T03:15:49;15.90;99.90
20831;DHT22;10576;53.556;9.868;2023-06-22T03:18:15;15.90;99.90
20831;DHT22;10576;53.556;9.868;2023-06-22T03:20:41;15.90;99.90
20831;DHT22;10576;53.556;9.868;2023-06-22T03:23:06;15.90;99.90
20831;DHT22;10576;53.556;9.868;2023-06-22T03:25:32;15.90;99.90
20831;DHT22;10576;53.556;9.868;2023-06-22T03:27:58;15.90;99.90
20831;DHT22;10576;53.556;9.868;2023-06-22T03:30:25;15.90;99.90
20831;DHT22;10576;53.556;9.868;2023-06-22T03:32:50;15.90;99.90
20831;DHT22;10576;53.556;9.868;2023-06-22T03:35:16;15.90;99.90
20831;DHT22;10576;53.556;9.868;2023-06-22T03:37:41;15.90;99.90
20831;DHT22;10576;53.556;9.868;2023-06-22T03:40:07;15.90;99.90
20831;DHT22;10576;53.556;9.868;2023-06-22T03:42:33;15.90;99.90
20831;DHT22;10576;53.556;9.868;2023-06-22T03:44:59;16.00;99.90
20831;DHT22;10576;53.556;9.868;2023-06-22T03:47:26;16.00;99.90
20831;DHT22;10576;53.556;9.868;2023-06-22T03:49:51;16.10;99.90
20831;DHT22;10576;53.556;9.868;2023-06-22T03:52:20;16.10;99.90
20831;DHT22;10576;53.556;9.868;2023-06-22T03:54:47;16.10;99.90
20831;DHT22;10576;53.556;9.868;2023-06-22T03:57:12;16.20;99.90
20831;DHT22;10576;53.556;9.868;2023-06-22T03:59:38;16.30;99.90
20831;DHT22;10576;53.556;9.868;2023-06-22T04:02:04;16.30;99.90
20831;DHT22;10576;53.556;9.868;2023-06-22T04:04:29;16.30;99.90
20831;DHT22;10576;53.556;9.868;2023-06-22T04:06:55;16.40;99.90
20831;DHT22;10576;53.556;9.868;2023-06-22T04:09:20;16.40;99.90
20831;DHT22;10576;53.556;9.868;2023-06-22T04:11:47;16.50;99.90
20831;DHT22;10576;53.556;9.868;2023-06-22T04:14:12;16.60;99.90
20831;DHT22;10576;53.556;9.868;2023-06-22T04:16:38;16.70;99.90
20831;DHT22;10576;53.556;9.868;2023-06-22T04:19:03;16.70;99.90
20831;DHT22;10576;53.556;9.868;2023-06-22T04:21:29;16.70;99.90
20831;DHT22;10576;53.556;9.868;2023-06-22T04:23:54;16.70;99.90
20831;DHT22;10576;53.556;9.868;2023-06-22T04:26:20;16.90;99.90
20831;DHT22;10576;53.556;9.868;2023-06-22T04:28:46;16.90;99.90
20831;DHT22;10576;53.556;9.868;2023-06-22T04:31:17;16.90;99.90
20831;DHT22;10576;53.556;9.868;2023-06-22T04:33:44;16.90;99.90
20831;DHT22;10576;53.556;9.868;2023-06-22T04:36:09;17.00;99.90
20831;DHT22;10576;53.556;9.868;2023-06-22T04:38:38;17.00;99.90
20831;DHT22;10576;53.556;9.868;2023-06-22T04:41:04;17.10;99.90
20831;DHT22;10576;53.556;9.868;2023-06-22T04:43:29;17.20;99.90
20831;DHT22;10576;53.556;9.868;2023-06-22T04:45:58;17.20;99.90
20831;DHT22;10576;53.556;9.868;2023-06-22T04:48:29;17.20;99.90
20831;DHT22;10576;53.556;9.868;2023-06-22T04:50:58;17.30;99.90
20831;DHT22;10576;53.556;9.868;2023-06-22T04:53:28;17.30;99.90
20831;DHT22;10576;53.556;9.868;2023-06-22T04:55:55;17.40;99.90
20831;DHT22;10576;53.556;9.868;2023-06-22T04:58:20;17.40;99.90
20831;DHT22;10576;53.556;9.868;2023-06-22T05:00:46;17.50;99.90
20831;DHT22;10576;53.556;9.868;2023-06-22T05:03:12;17.60;99.90
20831;DHT22;10576;53.556;9.868;2023-06-22T05:05:38;17.70;99.90
20831;DHT22;10576;53.556;9.868;2023-06-22T05:08:03;17.80;99.90
20831;DHT22;10576;53.556;9.868;2023-06-22T05:10:32;17.90;99.90
20831;DHT22;10576;53.556;9.868;2023-06-22T05:12:58;17.90;99.90
20831;DHT22;10576;53.556;9.868;2023-06-22T05:15:23;18.10;99.90
20831;DHT22;10576;53.556;9.868;2023-06-22T05:17:53;18.10;99.90
20831;DHT22;10576;53.556;9.868;2023-06-22T05:20:18;18.20;99.90
20831;DHT22;10576;53.556;9.868;2023-06-22T05:22:44;18.30;99.90
20831;DHT22;10576;53.556;9.868;2023-06-22T05:25:10;18.40;99.90
20831;DHT22;10576;53.556;9.868;2023-06-22T05:27:36;18.40;99.90
20831;DHT22;10576;53.556;9.868;2023-06-22T05:30:05;18.60;99.90
20831;DHT22;10576;53.556;9.868;2023-06-22T05:32:32;18.70;99.90
20831;DHT22;10576;53.556;9.868;2023-06-22T05:34:57;18.80;99.90
20831;DHT22;10576;53.556;9.868;2023-06-22T05:37:23;18.90;99.90
20831;DHT22;10576;53.556;9.868;2023-06-22T05:39:48;18.90;99.90
20831;DHT22;10576;53.556;9.868;2023-06-22T05:42:14;19.00;99.90
20831;DHT22;10576;53.556;9.868;2023-06-22T05:44:39;19.10;99.90
20831;DHT22;10576;53.556;9.868;2023-06-22T05:47:06;19.20;99.90
20831;DHT22;10576;53.556;9.868;2023-06-22T05:49:31;19.30;99.90
20831;DHT22;10576;53.556;9.868;2023-06-22T05:51:58;19.40;99.90
20831;DHT22;10576;53.556;9.868;2023-06-22T05:54:24;19.50;99.90
20831;DHT22;10576;53.556;9.868;2023-06-22T05:56:49;19.60;99.90
20831;DHT22;10576;53.556;9.868;2023-06-22T05:59:15;19.70;99.90
20831;DHT22;10576;53.556;9.868;2023-06-22T06:01:41;19.80;99.90
20831;DHT22;10576;53.556;9.868;2023-06-22T06:04:07;19.90;99.90
20831;DHT22;10576;53.556;9.868;2023-06-22T06:06:35;19.90;99.90
20831;DHT22;10576;53.556;9.868;2023-06-22T06:09:05;20.00;99.90
20831;DHT22;10576;53.556;9.868;2023-06-22T06:11:32;20.00;99.90
20831;DHT22;10576;53.556;9.868;2023-06-22T06:13:58;20.10;99.90
20831;DHT22;10576;53.556;9.868;2023-06-22T06:16:24;20.20;99.90
20831;DHT22;10576;53.556;9.868;2023-06-22T06:18:49;20.30;99.90
20831;DHT22;10576;53.556;9.868;2023-06-22T06:21:16;20.50;99.90
20831;DHT22;10576;53.556;9.868;2023-06-22T06:23:41;20.50;99.90
20831;DHT22;10576;53.556;9.868;2023-06-22T06:26:07;20.70;99.90
20831;DHT22;10576;53.556;9.868;2023-06-22T06:28:33;20.80;99.90
20831;DHT22;10576;53.556;9.868;2023-06-22T06:30:59;20.90;99.90
20831;DHT22;10576;53.556;9.868;2023-06-22T06:33:25;21.00;99.90
20831;DHT22;10576;53.556;9.868;2023-06-22T06:35:50;20.90;99.90
20831;DHT22;10576;53.556;9.868;2023-06-22T06:38:16;20.80;99.90
20831;DHT22;10576;53.556;9.868;2023-06-22T06:40:41;20.80;99.90
20831;DHT22;10576;53.556;9.868;2023-06-22T06:43:07;20.70;99.90
20831;DHT22;10576;53.556;9.868;2023-06-22T06:45:32;20.70;99.90
20831;DHT22;10576;53.556;9.868;2023-06-22T06:47:59;20.80;99.90
20831;DHT22;10576;53.556;9.868;2023-06-22T06:50:25;20.80;99.90
20831;DHT22;10576;53.556;9.868;2023-06-22T06:52:50;20.80;99.90
20831;DHT22;10576;53.556;9.868;2023-06-22T06:55:16;20.80;99.90
20831;DHT22;10576;53.556;9.868;2023-06-22T06:57:42;20.80;99.90
20831;DHT22;10576;53.556;9.868;2023-06-22T07:00:09;20.80;99.90
20831;DHT22;10576;53.556;9.868;2023-06-22T07:02:40;20.80;99.90
20831;DHT22;10576;53.556;9.868;2023-06-22T07:05:06;20.80;99.90
20831;DHT22;10576;53.556;9.868;2023-06-22T07:07:32;20.90;99.90
20831;DHT22;10576;53.556;9.868;2023-06-22T07:09:58;20.90;99.90
20831;DHT22;10576;53.556;9.868;2023-06-22T07:12:23;21.00;99.90
20831;DHT22;10576;53.556;9.868;2023-06-22T07:14:49;21.00;99.90
20831;DHT22;10576;53.556;9.868;2023-06-22T07:17:15;21.10;99.90
20831;DHT22;10576;53.556;9.868;2023-06-22T07:19:41;21.10;99.90
20831;DHT22;10576;53.556;9.868;2023-06-22T07:22:07;21.20;99.90
20831;DHT22;10576;53.556;9.868;2023-06-22T07:24:33;21.40;99.90
20831;DHT22;10576;53.556;9.868;2023-06-22T07:26:58;21.50;99.90
20831;DHT22;10576;53.556;9.868;2023-06-22T07:29:24;21.70;99.90
20831;DHT22;10576;53.556;9.868;2023-06-22T07:31:50;21.70;99.90
20831;DHT22;10576;53.556;9.868;2023-06-22T07:34:16;21.90;99.90
20831;DHT22;10576;53.556;9.868;2023-06-22T07:36:43;22.00;99.90
20831;DHT22;10576;53.556;9.868;2023-06-22T07:39:08;22.20;99.90
20831;DHT22;10576;53.556;9.868;2023-06-22T07:41:34;22.30;99.90
20831;DHT22;10576;53.556;9.868;2023-06-22T07:43:59;22.50;99.90
20831;DHT22;10576;53.556;9.868;2023-06-22T07:46:25;22.60;99.90
20831;DHT22;10576;53.556;9.868;2023-06-22T07:48:50;22.60;99.90
20831;DHT22;10576;53.556;9.868;2023-06-22T07:51:16;22.70;99.90
20831;DHT22;10576;53.556;9.868;2023-06-22T07:53:42;22.80;99.90
20831;DHT22;10576;53.556;9.868;2023-06-22T07:56:11;22.90;99.90
20831;DHT22;10576;53.556;9.868;2023-06-22T07:58:36;23.00;99.90
20831;DHT22;10576;53.556;9.868;2023-06-22T08:01:02;23.10;99.90
20831;DHT22;10576;53.556;9.868;2023-06-22T08:03:28;23.00;99.90
20831;DHT22;10576;53.556;9.868;2023-06-22T08:05:54;23.00;99.90
20831;DHT22;10576;53.556;9.868;2023-06-22T08:08:19;23.00;99.90
20831;DHT22;10576;53.556;9.868;2023-06-22T08:10:45;23.10;99.90
20831;DHT22;10576;53.556;9.868;2023-06-22T08:13:10;23.30;99.90
20831;DHT22;10576;53.556;9.868;2023-06-22T08:15:36;23.60;99.90
20831;DHT22;10576;53.556;9.868;2023-06-22T08:18:01;23.80;99.90
20831;DHT22;10576;53.556;9.868;2023-06-22T08:20:27;24.30;99.90
20831;DHT22;10576;53.556;9.868;2023-06-22T08:22:53;24.50;99.90
20831;DHT22;10576;53.556;9.868;2023-06-22T08:25:19;24.50;99.90
20831;DHT22;10576;53.556;9.868;2023-06-22T08:27:45;24.70;99.90
20831;DHT22;10576;53.556;9.868;2023-06-22T08:30:11;24.80;99.90
20831;DHT22;10576;53.556;9.868;2023-06-22T08:32:37;25.20;99.90
20831;DHT22;10576;53.556;9.868;2023-06-22T08:35:02;25.30;99.90
20831;DHT22;10576;53.556;9.868;2023-06-22T08:37:28;25.30;99.90
20831;DHT22;10576;53.556;9.868;2023-06-22T08:39:58;25.50;99.90
20831;DHT22;10576;53.556;9.868;2023-06-22T08:42:23;25.60;99.90
20831;DHT22;10576;53.556;9.868;2023-06-22T08:44:50;25.80;99.90
20831;DHT22;10576;53.556;9.868;2023-06-22T08:47:15;25.80;99.90
20831;DHT22;10576;53.556;9.868;2023-06-22T08:49:41;25.50;99.90
20831;DHT22;10576;53.556;9.868;2023-06-22T08:52:06;25.90;99.90
20831;DHT22;10576;53.556;9.868;2023-06-22T08:54:33;26.20;99.90
20831;DHT22;10576;53.556;9.868;2023-06-22T08:57:00;26.50;99.90
20831;DHT22;10576;53.556;9.868;2023-06-22T08:59:25;26.50;99.90
20831;DHT22;10576;53.556;9.868;2023-06-22T09:01:51;26.50;99.90
20831;DHT22;10576;53.556;9.868;2023-06-22T09:04:16;26.50;99.90
20831;DHT22;10576;53.556;9.868;2023-06-22T09:06:42;26.80;99.90
20831;DHT22;10576;53.556;9.868;2023-06-22T09:09:15;27.10;99.90
20831;DHT22;10576;53.556;9.868;2023-06-22T09:11:40;27.10;99.90
20831;DHT22;10576;53.556;9.868;2023-06-22T09:14:06;27.30;99.90
20831;DHT22;10576;53.556;9.868;2023-06-22T09:16:31;27.50;99.90
20831;DHT22;10576;53.556;9.868;2023-06-22T09:18:57;27.70;99.90
20831;DHT22;10576;53.556;9.868;2023-06-22T09:21:23;27.70;99.90
20831;DHT22;10576;53.556;9.868;2023-06-22T09:23:48;27.90;99.90
20831;DHT22;10576;53.556;9.868;2023-06-22T09:26:19;27.80;99.90
20831;DHT22;10576;53.556;9.868;2023-06-22T09:28:45;27.90;99.90
20831;DHT22;10576;53.556;9.868;2023-06-22T09:31:10;28.00;99.90
20831;DHT22;10576;53.556;9.868;2023-06-22T09:33:36;28.30;99.90
20831;DHT22;10576;53.556;9.868;2023-06-22T09:36:04;28.00;99.90
20831;DHT22;10576;53.556;9.868;2023-06-22T09:38:30;28.20;99.90
20831;DHT22;10576;53.556;9.868;2023-06-22T09:40:56;28.20;99.90
20831;DHT22;10576;53.556;9.868;2023-06-22T09:43:21;28.40;99.90
20831;DHT22;10576;53.556;9.868;2023-06-22T09:45:47;28.30;99.90
20831;DHT22;10576;53.556;9.868;2023-06-22T09:48:12;28.30;99.90
20831;DHT22;10576;53.556;9.868;2023-06-22T09:50:38;28.30;99.90
20831;DHT22;10576;53.556;9.868;2023-06-22T09:53:03;28.20;99.90
20831;DHT22;10576;53.556;9.868;2023-06-22T09:55:29;28.40;99.90
20831;DHT22;10576;53.556;9.868;2023-06-22T09:57:54;28.60;99.90
20831;DHT22;10576;53.556;9.868;2023-06-22T10:00:20;28.70;99.90
20831;DHT22;10576;53.556;9.868;2023-06-22T10:02:47;28.90;99.90
20831;DHT22;10576;53.556;9.868;2023-06-22T10:05:12;28.80;99.90
20831;DHT22;10576;53.556;9.868;2023-06-22T10:07:38;28.80;99.90
20831;DHT22;10576;53.556;9.868;2023-06-22T10:10:07;29.10;99.90
20831;DHT22;10576;53.556;9.868;2023-06-22T10:12:33;29.00;99.90
20831;DHT22;10576;53.556;9.868;2023-06-22T10:14:58;28.80;99.90
20831;DHT22;10576;53.556;9.868;2023-06-22T10:17:24;28.60;99.90
20831;DHT22;10576;53.556;9.868;2023-06-22T10:19:49;29.00;99.90
20831;DHT22;10576;53.556;9.868;2023-06-22T10:22:15;29.20;99.90
20831;DHT22;10576;53.556;9.868;2023-06-22T10:24:40;29.10;99.90
20831;DHT22;10576;53.556;9.868;2023-06-22T10:27:12;29.40;99.90
20831;DHT22;10576;53.556;9.868;2023-06-22T10:29:39;29.40;99.90
20831;DHT22;10576;53.556;9.868;2023-06-22T10:32:04;29.50;99.90
20831;DHT22;10576;53.556;9.868;2023-06-22T10:34:31;29.20;99.90
20831;DHT22;10576;53.556;9.868;2023-06-22T10:36:56;29.30;99.90
20831;DHT22;10576;53.556;9.868;2023-06-22T10:39:22;29.40;99.90
20831;DHT22;10576;53.556;9.868;2023-06-22T10:41:47;29.50;99.90
20831;DHT22;10576;53.556;9.868;2023-06-22T10:44:13;29.60;99.90
20831;DHT22;10576;53.556;9.868;2023-06-22T10:46:39;28.80;99.90
20831;DHT22;10576;53.556;9.868;2023-06-22T10:49:04;29.60;99.90
20831;DHT22;10576;53.556;9.868;2023-06-22T10:51:30;29.90;99.90
20831;DHT22;10576;53.556;9.868;2023-06-22T10:53:56;29.70;99.90
20831;DHT22;10576;53.556;9.868;2023-06-22T10:56:22;29.90;99.90
20831;DHT22;10576;53.556;9.868;2023-06-22T10:58:48;30.00;99.90
20831;DHT22;10576;53.556;9.868;2023-06-22T11:01:13;30.10;99.90
20831;DHT22;10576;53.556;9.868;2023-06-22T11:03:39;30.00;99.90
20831;DHT22;10576;53.556;9.868;2023-06-22T11:06:04;30.00;99.90
20831;DHT22;10576;53.556;9.868;2023-06-22T11:08:30;30.30;99.90
20831;DHT22;10576;53.556;9.868;2023-06-22T11:10:55;30.30;99.90
20831;DHT22;10576;53.556;9.868;2023-06-22T11:13:21;30.50;99.90
20831;DHT22;10576;53.556;9.868;2023-06-22T11:15:46;30.40;99.90
20831;DHT22;10576;53.556;9.868;2023-06-22T11:18:12;30.10;99.90
20831;DHT22;10576;53.556;9.868;2023-06-22T11:20:37;30.10;99.90
20831;DHT22;10576;53.556;9.868;2023-06-22T11:23:06;29.90;99.90
20831;DHT22;10576;53.556;9.868;2023-06-22T11:25:32;29.90;99.90
20831;DHT22;10576;53.556;9.868;2023-06-22T11:28:01;30.00;99.90
20831;DHT22;10576;53.556;9.868;2023-06-22T11:30:27;30.20;99.90
20831;DHT22;10576;53.556;9.868;2023-06-22T11:32:52;30.10;99.90
20831;DHT22;10576;53.556;9.868;2023-06-22T11:35:19;30.20;99.90
20831;DHT22;10576;53.556;9.868;2023-06-22T11:37:44;29.80;99.90
20831;DHT22;10576;53.556;9.868;2023-06-22T11:40:10;30.00;99.90
20831;DHT22;10576;53.556;9.868;2023-06-22T11:42:36;30.20;99.90
20831;DHT22;10576;53.556;9.868;2023-06-22T11:45:02;30.30;99.90
20831;DHT22;10576;53.556;9.868;2023-06-22T11:47:27;30.20;99.90
20831;DHT22;10576;53.556;9.868;2023-06-22T11:49:53;30.30;99.90
20831;DHT22;10576;53.556;9.868;2023-06-22T11:52:18;30.20;99.90
20831;DHT22;10576;53.556;9.868;2023-06-22T11:54:44;30.10;99.90
20831;DHT22;10576;53.556;9.868;2023-06-22T11:57:11;30.00;99.90
20831;DHT22;10576;53.556;9.868;2023-06-22T11:59:36;29.90;99.90
20831;DHT22;10576;53.556;9.868;2023-06-22T12:02:02;29.90;99.90
20831;DHT22;10576;53.556;9.868;2023-06-22T12:04:28;30.20;99.90
20831;DHT22;10576;53.556;9.868;2023-06-22T12:06:54;30.40;99.90
20831;DHT22;10576;53.556;9.868;2023-06-22T12:09:19;30.10;99.90
20831;DHT22;10576;53.556;9.868;2023-06-22T12:11:45;29.90;99.90
20831;DHT22;10576;53.556;9.868;2023-06-22T12:14:10;29.80;99.90
20831;DHT22;10576;53.556;9.868;2023-06-22T12:16:36;29.70;99.90
20831;DHT22;10576;53.556;9.868;2023-06-22T12:19:01;29.80;99.90
20831;DHT22;10576;53.556;9.868;2023-06-22T12:21:27;29.60;99.90
20831;DHT22;10576;53.556;9.868;2023-06-22T12:23:54;29.50;99.90
20831;DHT22;10576;53.556;9.868;2023-06-22T12:26:19;29.10;99.90
20831;DHT22;10576;53.556;9.868;2023-06-22T12:28:45;29.10;99.90
20831;DHT22;10576;53.556;9.868;2023-06-22T12:31:10;29.30;99.90
20831;DHT22;10576;53.556;9.868;2023-06-22T12:33:36;29.50;99.90
20831;DHT22;10576;53.556;9.868;2023-06-22T12:36:01;29.60;99.90
20831;DHT22;10576;53.556;9.868;2023-06-22T12:38:27;29.40;99.90
20831;DHT22;10576;53.556;9.868;2023-06-22T12:40:52;29.10;99.90
20831;DHT22;10576;53.556;9.868;2023-06-22T12:43:18;28.80;99.90
20831;DHT22;10576;53.556;9.868;2023-06-22T12:45:44;29.00;99.90
20831;DHT22;10576;53.556;9.868;2023-06-22T12:48:09;28.90;99.90
20831;DHT22;10576;53.556;9.868;2023-06-22T12:50:35;28.90;99.90
20831;DHT22;10576;53.556;9.868;2023-06-22T12:53:00;28.70;99.90
20831;DHT22;10576;53.556;9.868;2023-06-22T12:55:27;28.60;99.90
20831;DHT22;10576;53.556;9.868;2023-06-22T12:57:53;28.60;99.90
20831;DHT22;10576;53.556;9.868;2023-06-22T13:00:18;28.90;99.90
20831;DHT22;10576;53.556;9.868;2023-06-22T13:02:46;29.40;99.90
20831;DHT22;10576;53.556;9.868;2023-06-22T13:05:11;29.50;99.90
20831;DHT22;10576;53.556;9.868;2023-06-22T13:07:37;29.60;99.90
20831;DHT22;10576;53.556;9.868;2023-06-22T13:10:02;29.70;99.90
20831;DHT22;10576;53.556;9.868;2023-06-22T13:12:28;29.50;99.90
20831;DHT22;10576;53.556;9.868;2023-06-22T13:14:54;29.50;99.90
20831;DHT22;10576;53.556;9.868;2023-06-22T13:17:20;29.50;99.90
20831;DHT22;10576;53.556;9.868;2023-06-22T13:19:45;29.60;99.90
20831;DHT22;10576;53.556;9.868;2023-06-22T13:22:27;29.50;99.90
20831;DHT22;10576;53.556;9.868;2023-06-22T13:24:56;29.30;99.90
20831;DHT22;10576;53.556;9.868;2023-06-22T13:27:22;28.80;99.90
20831;DHT22;10576;53.556;9.868;2023-06-22T13:29:48;28.50;99.90
20831;DHT22;10576;53.556;9.868;2023-06-22T13:32:13;28.20;99.90
20831;DHT22;10576;53.556;9.868;2023-06-22T13:34:39;28.00;99.90
20831;DHT22;10576;53.556;9.868;2023-06-22T13:37:04;28.00;99.90
20831;DHT22;10576;53.556;9.868;2023-06-22T13:39:30;27.80;99.90
20831;DHT22;10576;53.556;9.868;2023-06-22T13:41:57;27.90;99.90
20831;DHT22;10576;53.556;9.868;2023-06-22T13:44:22;27.90;99.90
20831;DHT22;10576;53.556;9.868;2023-06-22T13:46:48;28.10;99.90
20831;DHT22;10576;53.556;9.868;2023-06-22T13:49:14;28.20;99.90
20831;DHT22;10576;53.556;9.868;2023-06-22T13:51:39;28.40;99.90
20831;DHT22;10576;53.556;9.868;2023-06-22T13:54:05;28.40;99.90
20831;DHT22;10576;53.556;9.868;2023-06-22T13:56:30;28.20;99.90
20831;DHT22;10576;53.556;9.868;2023-06-22T13:58:56;28.20;99.90
20831;DHT22;10576;53.556;9.868;2023-06-22T14:01:21;28.20;99.90
20831;DHT22;10576;53.556;9.868;2023-06-22T14:03:48;28.30;99.90
20831;DHT22;10576;53.556;9.868;2023-06-22T14:06:14;28.20;99.90
20831;DHT22;10576;53.556;9.868;2023-06-22T14:08:39;28.20;99.90
20831;DHT22;10576;53.556;9.868;2023-06-22T14:11:05;28.10;99.90
20831;DHT22;10576;53.556;9.868;2023-06-22T14:13:30;28.10;99.90
20831;DHT22;10576;53.556;9.868;2023-06-22T14:15:56;27.90;99.90
20831;DHT22;10576;53.556;9.868;2023-06-22T14:18:21;27.90;99.90
20831;DHT22;10576;53.556;9.868;2023-06-22T14:20:50;27.90;99.90
20831;DHT22;10576;53.556;9.868;2023-06-22T14:23:15;27.80;99.90
20831;DHT22;10576;53.556;9.868;2023-06-22T14:25:41;27.70;99.90
20831;DHT22;10576;53.556;9.868;2023-06-22T14:28:07;27.60;99.90
20831;DHT22;10576;53.556;9.868;2023-06-22T14:30:32;27.40;99.90
20831;DHT22;10576;53.556;9.868;2023-06-22T14:32:58;27.30;99.90
20831;DHT22;10576;53.556;9.868;2023-06-22T14:35:23;27.10;99.90
20831;DHT22;10576;53.556;9.868;2023-06-22T14:37:49;26.80;99.90
20831;DHT22;10576;53.556;9.868;2023-06-22T14:40:15;26.70;99.90
20831;DHT22;10576;53.556;9.868;2023-06-22T14:42:40;26.60;99.90
20831;DHT22;10576;53.556;9.868;2023-06-22T14:45:06;26.60;99.90
20831;DHT22;10576;53.556;9.868;2023-06-22T14:47:32;26.60;99.90
20831;DHT22;10576;53.556;9.868;2023-06-22T14:49:57;26.50;99.90
20831;DHT22;10576;53.556;9.868;2023-06-22T14:52:23;26.30;99.90
20831;DHT22;10576;53.556;9.868;2023-06-22T14:54:48;26.10;99.90
20831;DHT22;10576;53.556;9.868;2023-06-22T14:57:16;26.00;99.90
20831;DHT22;10576;53.556;9.868;2023-06-22T14:59:48;25.90;99.90
20831;DHT22;10576;53.556;9.868;2023-06-22T15:02:14;25.90;99.90
20831;DHT22;10576;53.556;9.868;2023-06-22T15:04:40;25.80;99.90
20831;DHT22;10576;53.556;9.868;2023-06-22T15:07:05;25.70;99.90
20831;DHT22;10576;53.556;9.868;2023-06-22T15:09:31;25.70;99.90
20831;DHT22;10576;53.556;9.868;2023-06-22T15:11:56;25.70;99.90
20831;DHT22;10576;53.556;9.868;2023-06-22T15:14:23;25.60;99.90
20831;DHT22;10576;53.556;9.868;2023-06-22T15:16:48;25.60;99.90
20831;DHT22;10576;53.556;9.868;2023-06-22T15:19:14;27.70;99.90
20831;DHT22;10576;53.556;9.868;2023-06-22T15:21:40;25.50;99.90
20831;DHT22;10576;53.556;9.868;2023-06-22T15:24:05;25.50;99.90
20831;DHT22;10576;53.556;9.868;2023-06-22T15:26:31;25.50;99.90
20831;DHT22;10576;53.556;9.868;2023-06-22T15:28:56;25.50;99.90
20831;DHT22;10576;53.556;9.868;2023-06-22T15:31:22;25.50;99.90
20831;DHT22;10576;53.556;9.868;2023-06-22T15:33:47;25.40;99.90
20831;DHT22;10576;53.556;9.868;2023-06-22T15:36:13;26.40;99.90
20831;DHT22;10576;53.556;9.868;2023-06-22T15:38:38;25.30;99.90